createdAt,value
2024-03-12T00:02:52.971Z,3.43
2024-03-12T00:07:54.908Z,5.23
2024-03-12T00:12:57.520Z,15.73
2024-03-12T00:17:59.564Z,3.13
2024-03-12T00:23:02.321Z,1.97
2024-03-12T00:28:06.854Z,3.37
2024-03-12T00:33:09.282Z,1.67
2024-03-12T00:38:11.880Z,2.73
2024-03-12T00:43:15.551Z,2.10
2024-03-12T00:48:19.259Z,1.87
2024-03-12T00:53:21.194Z,2.70
2024-03-12T00:58:24.803Z,2.20
2024-03-12T01:03:27.436Z,2.33
2024-03-12T01:08:30.166Z,1.70
2024-03-12T01:13:32.729Z,1.20
2024-03-12T01:18:34.639Z,1.90
2024-03-12T01:23:36.625Z,6.17
2024-03-12T01:28:38.601Z,2.30
2024-03-12T01:33:41.176Z,2.50
2024-03-12T01:38:43.158Z,1.90
2024-03-12T01:43:55.256Z,1.80
2024-03-12T01:48:59.819Z,1.70
2024-03-12T01:54:04.977Z,3.67
2024-03-12T01:59:06.943Z,1.90
2024-03-12T02:04:10.181Z,1.77
2024-03-12T02:09:13.625Z,2.23
2024-03-12T02:14:17.988Z,1.63
2024-03-12T02:19:20.038Z,2.30
2024-03-12T02:24:22.620Z,2.90
2024-03-12T02:29:24.622Z,2.27
2024-03-12T02:34:30.373Z,2.43
2024-03-12T02:39:32.485Z,5.73
2024-03-12T02:44:34.435Z,2.27
2024-03-12T02:49:37.971Z,3.50
2024-03-12T02:54:39.999Z,2.67
2024-03-12T02:59:41.901Z,3.80
2024-03-12T03:04:44.350Z,1.50
2024-03-12T03:09:46.237Z,2.13
2024-03-12T03:14:48.254Z,1.60
2024-03-12T03:19:50.311Z,2.33
2024-03-12T03:24:52.413Z,1.90
2024-03-12T03:29:57.961Z,2.40
2024-03-12T03:34:59.855Z,1.40
2024-03-12T03:40:23.834Z,2.00
2024-03-12T03:45:26.466Z,2.30
2024-03-12T03:50:28.412Z,2.53
2024-03-12T03:55:30.311Z,2.97
2024-03-12T04:00:33.787Z,1.60
2024-03-12T04:05:36.373Z,3.70
2024-03-12T04:10:38.337Z,1.60
2024-03-12T04:15:41.497Z,3.00
2024-03-12T04:20:43.522Z,2.67
2024-03-12T04:25:45.382Z,2.10
2024-03-12T04:30:49.850Z,1.70
2024-03-12T04:35:53.279Z,2.70
2024-03-12T04:40:55.126Z,2.23
2024-03-12T04:45:57.122Z,3.23
2024-03-12T04:50:59.254Z,2.50
2024-03-12T04:56:01.223Z,2.37
2024-03-12T05:01:03.253Z,4.70
2024-03-12T05:06:05.340Z,4.70
2024-03-12T05:11:07.332Z,4.80
2024-03-12T05:16:09.318Z,5.80
2024-03-12T05:21:11.891Z,4.60
2024-03-12T05:26:16.761Z,9.53
2024-03-12T05:31:31.151Z,2.27
2024-03-12T05:36:42.163Z,2.13
2024-03-12T05:41:50.550Z,2.97
2024-03-12T05:47:11.423Z,3.00
2024-03-12T05:52:13.647Z,2.57
2024-03-12T05:57:15.829Z,2.27
2024-03-12T06:02:19.737Z,2.70
2024-03-12T06:07:22.379Z,2.97
2024-03-12T06:12:24.871Z,4.40
2024-03-12T06:17:27.412Z,2.47
2024-03-12T06:22:30.353Z,2.07
2024-03-12T06:27:45.048Z,2.30
2024-03-12T06:56:02.015Z,2.43
2024-03-12T07:07:12.400Z,2.67
2024-03-12T07:12:19.029Z,5.80
2024-03-12T07:18:16.490Z,2.57
2024-03-12T07:23:19.269Z,2.73
2024-03-12T07:28:24.764Z,3.53
2024-03-12T07:33:27.587Z,1.90
2024-03-12T07:38:29.965Z,2.20
2024-03-12T07:43:32.581Z,2.10
2024-03-12T07:48:35.038Z,1.37
2024-03-12T07:53:38.120Z,1.83
2024-03-12T07:58:42.138Z,1.80
2024-03-12T08:03:44.849Z,2.03
2024-03-12T08:08:47.467Z,1.70
2024-03-12T08:13:50.068Z,1.10
2024-03-12T08:18:53.449Z,1.40
2024-03-12T08:23:57.518Z,1.67
2024-03-12T08:29:00.259Z,3.00
2024-03-12T08:34:04.389Z,1.10
2024-03-12T08:39:06.864Z,2.67
2024-03-12T08:44:10.732Z,2.47
2024-03-12T08:49:13.243Z,5.80
2024-03-12T08:54:18.210Z,1.70
2024-03-12T08:59:21.690Z,3.37
2024-03-12T09:04:24.635Z,2.00
2024-03-12T09:09:28.297Z,2.90
2024-03-12T09:14:31.765Z,2.40
2024-03-12T09:19:36.831Z,3.77
2024-03-12T09:24:40.129Z,2.50
2024-03-12T09:29:42.649Z,10.10
2024-03-12T09:34:45.170Z,4.13
2024-03-12T09:39:57.806Z,4.50
2024-03-12T09:45:04.174Z,2.83
2024-03-12T09:50:34.152Z,2.73
2024-03-12T09:55:40.577Z,2.67
2024-03-12T10:06:11.743Z,3.13
2024-03-12T10:11:28.642Z,2.47
2024-03-12T10:16:38.458Z,3.00
2024-03-12T10:21:43.643Z,6.50
2024-03-12T10:26:47.980Z,3.43
2024-03-12T10:31:52.462Z,3.23
2024-03-12T10:37:01.149Z,3.53
2024-03-12T10:42:07.172Z,2.20
2024-03-12T10:47:16.544Z,2.60
2024-03-12T10:52:33.413Z,3.60
2024-03-12T10:57:40.152Z,3.00
2024-03-12T11:02:47.698Z,5.43
2024-03-12T11:07:54.983Z,3.80
2024-03-12T11:13:06.895Z,6.17
2024-03-12T11:18:27.187Z,4.70
2024-03-12T11:23:32.213Z,6.90
2024-03-12T11:28:52.056Z,2.60
2024-03-12T11:33:57.501Z,4.03
2024-03-12T11:39:18.931Z,6.23
2024-03-12T11:44:47.912Z,3.90
2024-03-12T11:50:05.172Z,5.70
2024-03-12T11:55:09.050Z,4.57
2024-03-12T12:00:11.697Z,3.30
2024-03-12T12:05:16.066Z,2.80
2024-03-12T12:10:18.090Z,15.97
2024-03-12T12:15:20.186Z,5.30
2024-03-12T12:20:22.576Z,3.70
2024-03-12T12:25:28.549Z,7.37
2024-03-12T12:30:31.426Z,4.90
2024-03-12T12:35:33.510Z,5.20
2024-03-12T12:40:35.654Z,9.23
2024-03-12T12:45:40.530Z,4.13
2024-03-12T12:50:43.034Z,4.80
2024-03-12T12:55:45.269Z,6.07
2024-03-12T13:01:00.846Z,5.80
2024-03-12T13:06:17.234Z,5.00
2024-03-12T13:11:23.554Z,8.30
2024-03-12T13:16:25.789Z,4.10
2024-03-12T13:21:27.773Z,5.40
2024-03-12T13:26:29.642Z,7.07
2024-03-12T13:31:31.710Z,5.13
2024-03-12T13:36:34.031Z,4.97
2024-03-12T13:41:36.401Z,5.20
2024-03-12T13:46:42.151Z,6.07
2024-03-12T13:51:47.363Z,6.93
2024-03-12T13:56:49.793Z,6.03
2024-03-12T14:01:52.619Z,5.60
2024-03-12T14:06:54.622Z,6.20
2024-03-12T14:11:56.484Z,6.43
2024-03-12T14:16:58.484Z,9.30
2024-03-12T14:22:00.437Z,8.83
2024-03-12T14:27:02.320Z,7.73
2024-03-12T14:32:04.432Z,10.10
2024-03-12T14:37:07.990Z,7.70
2024-03-12T14:42:09.986Z,11.23
2024-03-12T14:47:11.992Z,12.37
2024-03-12T14:52:14.160Z,8.70
2024-03-12T14:57:18.156Z,8.70
2024-03-12T15:02:21.217Z,7.87
2024-03-12T15:07:24.969Z,9.50
2024-03-12T15:12:29.994Z,11.07
2024-03-12T15:17:33.254Z,11.97
2024-03-12T15:22:36.253Z,7.80
2024-03-12T15:27:42.998Z,6.80
2024-03-12T15:32:47.002Z,13.80
2024-03-12T15:37:49.303Z,8.10
2024-03-12T15:42:51.552Z,8.40
2024-03-12T15:47:53.763Z,10.23
2024-03-12T15:52:55.680Z,9.80
2024-03-12T15:57:59.628Z,8.70
2024-03-12T16:03:01.956Z,7.80
2024-03-12T16:08:07.971Z,9.13
2024-03-12T16:13:11.467Z,11.30
2024-03-12T16:18:13.551Z,15.07
2024-03-12T16:23:16.107Z,13.23
2024-03-12T16:28:18.972Z,12.20
2024-03-12T16:33:20.979Z,9.13
2024-03-12T16:38:23.075Z,9.50
2024-03-12T16:43:27.031Z,11.50
2024-03-12T16:48:29.842Z,13.20
2024-03-12T16:53:33.060Z,9.47
2024-03-12T16:58:36.033Z,15.77
2024-03-12T17:03:38.336Z,9.40
2024-03-12T17:08:40.686Z,10.77
2024-03-12T17:13:42.729Z,8.70
2024-03-12T17:18:45.506Z,14.37
2024-03-12T17:23:47.970Z,11.40
2024-03-12T17:28:50.739Z,12.00
2024-03-12T17:33:54.536Z,10.83
2024-03-12T17:39:00.713Z,11.00
2024-03-12T17:44:02.918Z,11.70
2024-03-12T17:49:06.572Z,12.30
2024-03-12T17:54:10.557Z,12.77
2024-03-12T17:59:15.908Z,13.60
2024-03-12T18:04:19.115Z,15.13
2024-03-12T18:09:22.642Z,11.33
2024-03-12T18:14:24.749Z,11.07
2024-03-12T18:19:26.642Z,9.57
2024-03-12T18:24:30.333Z,9.57
2024-03-12T18:29:33.799Z,10.60
2024-03-12T18:34:36.754Z,13.30
2024-03-12T18:39:38.730Z,14.47
2024-03-12T18:44:42.048Z,12.07
2024-03-12T18:49:45.262Z,9.13
2024-03-12T18:54:47.378Z,11.17
2024-03-12T18:59:49.884Z,9.90
2024-03-12T19:05:06.993Z,11.27
2024-03-12T19:10:10.179Z,11.27
2024-03-12T19:15:15.607Z,11.43
2024-03-12T19:20:23.732Z,8.17
2024-03-12T19:25:27.197Z,11.67
2024-03-12T19:30:29.526Z,11.40
2024-03-12T19:35:31.917Z,5.07
2024-03-12T19:40:34.974Z,7.10
2024-03-12T19:45:37.276Z,9.93
2024-03-12T19:50:40.477Z,13.93
2024-03-12T19:55:44.682Z,9.43
2024-03-12T20:00:48.488Z,7.23
2024-03-12T20:05:52.440Z,8.83
2024-03-12T20:10:56.706Z,6.37
2024-03-12T20:15:59.033Z,10.40
2024-03-12T20:21:04.612Z,8.50
2024-03-12T20:26:07.522Z,8.90
2024-03-12T20:31:10.788Z,7.23
2024-03-12T20:36:13.559Z,8.23
2024-03-12T20:41:21.363Z,8.10
2024-03-12T20:46:24.604Z,10.10
2024-03-12T20:51:27.151Z,10.53
2024-03-12T20:56:29.021Z,8.60
2024-03-12T21:01:31.058Z,9.80
2024-03-12T21:06:33.131Z,6.57
2024-03-12T21:11:35.292Z,11.33
2024-03-12T21:16:37.140Z,9.17
2024-03-12T21:21:39.044Z,8.23
2024-03-12T21:26:40.915Z,9.17
2024-03-12T21:31:43.251Z,5.63
2024-03-12T21:36:48.521Z,6.53
2024-03-12T21:41:50.442Z,7.07
2024-03-12T21:46:52.518Z,7.10
2024-03-12T21:51:54.592Z,4.87
2024-03-12T21:56:56.961Z,8.23
2024-03-12T22:02:00.693Z,8.07
2024-03-12T22:07:03.544Z,4.53
2024-03-12T22:12:06.139Z,5.40
2024-03-12T22:17:09.127Z,6.50
2024-03-12T22:22:11.053Z,6.43
2024-03-12T22:27:15.503Z,6.73
2024-03-12T22:32:21.902Z,4.60
2024-03-12T22:37:24.042Z,4.40
2024-03-12T22:42:26.665Z,5.50
2024-03-12T22:47:29.615Z,3.50
2024-03-12T22:52:31.899Z,5.90
2024-03-12T22:57:37.985Z,5.40
2024-03-12T23:02:41.727Z,4.90
2024-03-12T23:07:43.775Z,4.67
2024-03-12T23:12:47.133Z,4.03
2024-03-12T23:17:49.764Z,6.60
2024-03-12T23:22:52.428Z,3.73
2024-03-12T23:27:56.248Z,4.83
2024-03-12T23:32:59.202Z,4.67
2024-03-12T23:38:03.148Z,5.50
2024-03-12T23:43:05.331Z,3.40
2024-03-12T23:48:07.394Z,4.43
2024-03-12T23:53:09.318Z,3.60
